Aviation Digital Data Service (ADDS)

Output produced by METARs form (0749 UTC 30 August 2015)
found at http://www.aviationweather.gov/adds/metars/
 
KPIA 300529Z 3006/3106 03004KT P6SM SCT025 BKN040 
     FM300900 VRB03KT 3SM BR SCT001 OVC025 
     TEMPO 3010/3013 1/2SM FG BKN001 
     FM301300 07003KT 4SM BR BKN012 
     FM301700 13005KT P6SM BKN050 
     FM310100 19003KT P6SM SCT250